Time;durP1;ratioP1;P1;durP2;ratioP2;P2;SDS_P1;SDS_P2;PMS_P1;PMS_P2;Temp;Humidity;BMP_temperature;BMP_pressure;BME280_temperature;BME280_humidity;BME280_pressure;Samples;Min_cycle;Max_cycle;Signal;HPM_P1;HPM_P2
2023/07/11 00:00:20;;;;;;;6.97;5.32;;;17.10;99.90;;;;;;4952930;28;20074;-84
2023/07/11 00:02:47;;;;;;;7.18;5.15;;;17.10;99.90;;;;;;4970841;28;20043;-85
2023/07/11 00:05:17;;;;;;;10.32;5.80;;;17.20;99.90;;;;;;4953074;28;20054;-84
2023/07/11 00:07:44;;;;;;;9.18;6.15;;;17.20;99.90;;;;;;4953290;28;20075;-84
2023/07/11 00:10:12;;;;;;;6.97;4.95;;;17.20;99.90;;;;;;4953341;28;20050;-84
2023/07/11 00:12:38;;;;;;;5.53;4.78;;;17.20;99.90;;;;;;4952661;28;20046;-85
2023/07/11 00:15:06;;;;;;;8.57;5.60;;;17.30;99.90;;;;;;4969014;28;20456;-84
2023/07/11 00:17:31;;;;;;;6.82;5.95;;;17.30;99.90;;;;;;4970649;28;20057;-85
2023/07/11 00:20:00;;;;;;;6.60;6.00;;;17.30;99.90;;;;;;4953242;28;20038;-85
2023/07/11 00:22:28;;;;;;;6.68;5.78;;;17.30;99.90;;;;;;4985902;28;20051;-85
2023/07/11 00:24:54;;;;;;;6.70;5.80;;;17.30;99.90;;;;;;4953372;28;20050;-85
2023/07/11 00:27:21;;;;;;;6.80;5.85;;;17.20;99.90;;;;;;4985080;28;20100;-84
2023/07/11 00:29:47;;;;;;;7.18;6.05;;;17.30;99.90;;;;;;4970785;28;20050;-84
2023/07/11 00:32:15;;;;;;;6.75;5.43;;;17.20;99.90;;;;;;4953248;28;20039;-84
2023/07/11 00:34:41;;;;;;;7.60;5.40;;;17.20;99.90;;;;;;4953368;28;20050;-85
2023/07/11 00:37:07;;;;;;;7.53;5.57;;;17.10;99.90;;;;;;4969322;28;20049;-84
2023/07/11 00:39:35;;;;;;;6.63;5.88;;;17.10;99.90;;;;;;4952924;28;20047;-84
2023/07/11 00:42:03;;;;;;;8.55;4.68;;;17.10;99.90;;;;;;4969882;28;20039;-85
2023/07/11 00:44:28;;;;;;;5.63;5.03;;;16.90;99.90;;;;;;4952777;28;20105;-84
2023/07/11 00:46:54;;;;;;;8.38;5.45;;;17.20;99.90;;;;;;4952666;28;20047;-84
2023/07/11 00:49:22;;;;;;;8.05;5.05;;;17.20;99.90;;;;;;4953167;28;20429;-84
2023/07/11 00:52:00;;;;;;;6.93;4.80;;;17.20;99.90;;;;;;4968911;28;20058;-84
2023/07/11 00:54:32;;;;;;;8.32;5.80;;;17.10;99.90;;;;;;4970320;28;20046;-85
2023/07/11 00:57:00;;;;;;;6.70;5.43;;;17.20;99.90;;;;;;4936340;28;20050;-83
2023/07/11 00:59:27;;;;;;;9.63;6.20;;;17.30;99.90;;;;;;4968867;28;20117;-84
2023/07/11 01:02:15;;;;;;;8.27;6.60;;;17.30;99.90;;;;;;4971666;28;20041;-85
2023/07/11 01:04:41;;;;;;;8.00;5.88;;;17.30;99.90;;;;;;4988982;28;20061;-85
2023/07/11 01:07:09;;;;;;;7.72;6.97;;;17.30;99.90;;;;;;4956481;28;20118;-85
2023/07/11 01:09:35;;;;;;;8.35;7.05;;;17.30;99.90;;;;;;4940019;28;20053;-84
2023/07/11 01:12:06;;;;;;;10.57;7.13;;;17.40;99.90;;;;;;4988995;28;20431;-84
2023/07/11 01:14:33;;;;;;;8.13;6.45;;;17.30;99.90;;;;;;4973855;28;20051;-85
2023/07/11 01:16:59;;;;;;;10.15;7.22;;;17.30;99.90;;;;;;4973455;28;20454;-85
2023/07/11 01:19:28;;;;;;;8.38;7.15;;;17.20;99.90;;;;;;4956322;28;20125;-85
2023/07/11 01:21:53;;;;;;;10.13;7.95;;;17.20;99.90;;;;;;4956045;28;20112;-85
2023/07/11 01:24:22;;;;;;;7.85;6.55;;;17.20;99.90;;;;;;4972869;28;20150;-85
2023/07/11 01:26:48;;;;;;;10.45;7.32;;;17.20;99.90;;;;;;4973625;28;20045;-84
2023/07/11 01:29:13;;;;;;;9.43;6.15;;;17.10;99.90;;;;;;4972172;28;20038;-85
2023/07/11 01:31:42;;;;;;;10.05;7.40;;;17.10;99.90;;;;;;4988491;28;20061;-85
2023/07/11 01:34:07;;;;;;;8.30;6.55;;;17.00;99.90;;;;;;4988372;28;20485;-85
2023/07/11 01:36:34;;;;;;;9.45;8.40;;;17.00;99.90;;;;;;4939996;28;20047;-85
2023/07/11 01:39:00;;;;;;;10.45;8.30;;;17.10;99.90;;;;;;4955665;28;20061;-84
2023/07/11 01:41:26;;;;;;;13.38;9.63;;;17.10;99.90;;;;;;4973525;28;20105;-85
2023/07/11 01:43:53;;;;;;;9.65;7.70;;;17.10;99.90;;;;;;4939989;28;20047;-85
2023/07/11 01:46:22;;;;;;;8.38;7.57;;;17.00;99.90;;;;;;4988095;28;20057;-84
2023/07/11 01:48:48;;;;;;;9.27;8.15;;;17.00;99.90;;;;;;4955901;28;20047;-85
2023/07/11 01:51:14;;;;;;;9.63;7.47;;;17.10;99.90;;;;;;4973674;28;20039;-85
2023/07/11 01:53:40;;;;;;;11.15;8.05;;;17.10;99.90;;;;;;4971414;28;20035;-84
2023/07/11 01:56:06;;;;;;;11.57;8.23;;;17.10;99.90;;;;;;4955415;28;20090;-85
2023/07/11 01:58:32;;;;;;;10.07;8.23;;;17.10;99.90;;;;;;4939590;28;20129;-85
2023/07/11 02:00:59;;;;;;;11.00;8.77;;;17.10;99.90;;;;;;4972879;28;20541;-85
2023/07/11 02:03:28;;;;;;;10.38;8.50;;;17.10;99.90;;;;;;4955623;28;20097;-84
2023/07/11 02:05:57;;;;;;;9.27;8.25;;;17.10;99.90;;;;;;4955230;28;20043;-85
2023/07/11 02:08:22;;;;;;;10.25;7.95;;;17.10;99.90;;;;;;4955312;28;20053;-85
2023/07/11 02:10:48;;;;;;;14.55;8.45;;;17.10;99.90;;;;;;4972756;28;20117;-84
2023/07/11 02:13:14;;;;;;;10.13;8.68;;;17.10;99.90;;;;;;4955364;28;20500;-84
2023/07/11 02:15:41;;;;;;;10.15;8.23;;;17.00;99.90;;;;;;4955446;28;20070;-85
2023/07/11 02:18:07;;;;;;;10.00;8.43;;;17.10;99.90;;;;;;4955333;28;20122;-85
2023/07/11 02:20:32;;;;;;;9.75;8.73;;;17.00;99.90;;;;;;4970719;28;20123;-85
2023/07/11 02:22:59;;;;;;;11.00;8.05;;;17.00;99.90;;;;;;4951248;29;20070;-85
2023/07/11 02:25:26;;;;;;;9.60;7.85;;;16.90;99.90;;;;;;4951977;28;20050;-85
2023/07/11 02:27:51;;;;;;;8.35;7.55;;;16.90;99.90;;;;;;4936193;29;20402;-85
2023/07/11 02:30:17;;;;;;;14.40;7.90;;;16.90;99.90;;;;;;4968184;28;20046;-84
2023/07/11 02:32:43;;;;;;;9.55;8.18;;;16.90;99.90;;;;;;4967932;28;20106;-85
2023/07/11 02:35:08;;;;;;;12.43;8.10;;;16.90;99.90;;;;;;4968238;28;20054;-85
2023/07/11 02:37:34;;;;;;;11.63;8.00;;;16.90;99.90;;;;;;4951491;28;20043;-85
2023/07/11 02:40:00;;;;;;;9.43;7.50;;;16.80;99.90;;;;;;4984091;28;20118;-84
2023/07/11 02:42:25;;;;;;;10.75;8.48;;;16.80;99.90;;;;;;4951693;28;20039;-85
2023/07/11 02:44:51;;;;;;;10.18;7.60;;;16.80;99.90;;;;;;4983791;28;20523;-85
2023/07/11 02:47:17;;;;;;;13.90;7.93;;;16.80;99.90;;;;;;4983916;28;20039;-85
2023/07/11 02:49:42;;;;;;;10.48;8.05;;;16.80;99.90;;;;;;4951594;28;20118;-84
2023/07/11 02:52:10;;;;;;;9.20;7.82;;;16.80;99.90;;;;;;4966750;28;20508;-85
2023/07/11 02:54:37;;;;;;;10.85;8.30;;;16.80;99.90;;;;;;4951535;29;20107;-85
2023/07/11 02:57:10;;;;;;;8.98;8.00;;;16.80;99.90;;;;;;4967933;28;20133;-85
2023/07/11 02:59:35;;;;;;;10.02;9.02;;;16.80;99.90;;;;;;4952853;28;20397;-86
2023/07/11 03:02:01;;;;;;;10.15;9.07;;;16.80;99.90;;;;;;4952631;28;20043;-84
2023/07/11 03:04:27;;;;;;;10.57;8.57;;;16.80;99.90;;;;;;4967709;28;20043;-85
2023/07/11 03:06:56;;;;;;;10.68;9.18;;;16.80;99.90;;;;;;4934997;29;20031;-84
2023/07/11 03:09:22;;;;;;;9.50;8.27;;;16.80;99.90;;;;;;4952608;28;20559;-85
2023/07/11 03:11:48;;;;;;;9.45;8.55;;;16.90;99.90;;;;;;4983879;28;20131;-85
2023/07/11 03:14:13;;;;;;;9.10;8.20;;;16.90;99.90;;;;;;4983265;28;20321;-85
2023/07/11 03:16:41;;;;;;;11.18;9.90;;;16.80;99.90;;;;;;4951155;28;20086;-84
2023/07/11 03:19:07;;;;;;;9.30;8.35;;;16.80;99.90;;;;;;4967324;28;20553;-85
2023/07/11 03:21:33;;;;;;;11.95;9.43;;;16.70;99.90;;;;;;4966540;28;20042;-85
2023/07/11 03:23:59;;;;;;;9.43;8.32;;;16.70;99.90;;;;;;4982468;28;20119;-85
2023/07/11 03:26:27;;;;;;;9.38;8.27;;;16.70;99.90;;;;;;4952434;28;20588;-85
2023/07/11 03:28:53;;;;;;;15.93;7.82;;;16.70;99.90;;;;;;4950774;28;20074;-85
2023/07/11 03:31:19;;;;;;;9.10;7.97;;;16.70;99.90;;;;;;4934941;29;20035;-85
2023/07/11 03:33:51;;;;;;;11.85;9.23;;;16.60;99.90;;;;;;4966858;28;20039;-85
2023/07/11 03:36:16;;;;;;;13.05;6.90;;;16.60;99.90;;;;;;4982113;28;20039;-85
2023/07/11 03:38:42;;;;;;;11.13;7.95;;;16.60;99.90;;;;;;4950333;28;20402;-85
2023/07/11 03:41:08;;;;;;;8.18;6.60;;;16.60;99.90;;;;;;4951350;28;20046;-85
2023/07/11 03:43:33;;;;;;;10.30;7.95;;;16.50;99.90;;;;;;4950354;29;20117;-84
2023/07/11 03:45:59;;;;;;;9.95;7.50;;;16.50;99.90;;;;;;4966078;28;20574;-85
2023/07/11 03:48:31;;;;;;;9.43;8.10;;;16.60;99.90;;;;;;4966183;28;20086;-84
2023/07/11 03:50:56;;;;;;;8.15;7.35;;;16.60;99.90;;;;;;4949287;29;20042;-85
2023/07/11 03:53:23;;;;;;;15.00;9.73;;;16.70;99.90;;;;;;4966017;28;20043;-85
2023/07/11 03:55:49;;;;;;;13.50;7.65;;;16.70;99.90;;;;;;4934426;29;20043;-85
2023/07/11 03:58:16;;;;;;;8.63;7.32;;;16.80;99.90;;;;;;4953207;28;20091;-85
2023/07/11 04:00:42;;;;;;;12.38;8.13;;;16.80;99.90;;;;;;4957400;29;20043;-84
2023/07/11 04:03:07;;;;;;;9.45;8.15;;;16.90;99.90;;;;;;4965789;28;20066;-85
2023/07/11 04:05:33;;;;;;;10.95;8.25;;;16.90;99.90;;;;;;4965295;28;20482;-85
2023/07/11 04:08:05;;;;;;;9.60;8.80;;;16.90;99.90;;;;;;4967252;28;20045;-84
2023/07/11 04:10:31;;;;;;;11.45;9.77;;;17.00;99.90;;;;;;4934178;29;20118;-85
2023/07/11 04:12:57;;;;;;;11.93;9.05;;;17.00;99.90;;;;;;4934435;29;20043;-85
2023/07/11 04:15:22;;;;;;;12.32;11.15;;;17.10;99.90;;;;;;4952000;28;20047;-85
2023/07/11 04:17:48;;;;;;;10.60;9.30;;;17.20;99.90;;;;;;4951777;29;20047;-86
2023/07/11 04:20:17;;;;;;;12.40;8.27;;;17.30;99.90;;;;;;4952566;29;20078;-86
2023/07/11 04:22:45;;;;;;;13.60;9.73;;;17.30;99.90;;;;;;4936509;29;20062;-87
2023/07/11 04:25:20;;;;;;;13.05;9.95;;;17.40;99.90;;;;;;4934152;28;20130;-86
2023/07/11 04:27:46;;;;;;;9.85;8.10;;;17.50;99.90;;;;;;4965837;28;20383;-86
2023/07/11 04:30:15;;;;;;;12.02;9.40;;;17.50;99.90;;;;;;4949821;28;20051;-85
2023/07/11 04:32:41;;;;;;;10.40;8.88;;;17.60;99.90;;;;;;4965252;28;20046;-84
2023/07/11 04:35:12;;;;;;;10.05;9.10;;;17.50;99.90;;;;;;4949851;28;20051;-85
2023/07/11 04:37:38;;;;;;;10.73;9.38;;;17.50;99.90;;;;;;4965872;28;20066;-85
2023/07/11 04:40:08;;;;;;;10.63;8.65;;;17.50;99.90;;;;;;4949587;28;20078;-86
2023/07/11 04:42:37;;;;;;;11.65;8.07;;;17.50;99.90;;;;;;4949744;28;20043;-86
2023/07/11 04:45:04;;;;;;;11.25;8.93;;;17.50;99.90;;;;;;4981361;28;20135;-85
2023/07/11 04:47:30;;;;;;;11.57;10.18;;;17.50;99.90;;;;;;4948497;29;20486;-85
2023/07/11 04:49:56;;;;;;;14.75;9.50;;;17.50;99.90;;;;;;4948947;29;20506;-85
2023/07/11 04:52:21;;;;;;;9.20;7.97;;;17.50;99.90;;;;;;4949449;29;20043;-85
2023/07/11 04:54:47;;;;;;;13.85;8.48;;;17.50;99.90;;;;;;4948878;29;20055;-86
2023/07/11 04:57:13;;;;;;;11.50;9.18;;;17.60;99.90;;;;;;4964976;28;20043;-86
2023/07/11 04:59:39;;;;;;;10.73;8.77;;;17.60;99.90;;;;;;4964897;28;20089;-86
2023/07/11 05:02:04;;;;;;;9.98;8.95;;;17.70;99.90;;;;;;4964721;28;20089;-86
2023/07/11 05:04:30;;;;;;;9.43;7.70;;;17.70;99.90;;;;;;4948708;29;20179;-86
2023/07/11 05:07:00;;;;;;;9.63;8.02;;;17.70;99.90;;;;;;4965016;28;20047;-85
2023/07/11 05:09:29;;;;;;;12.15;9.10;;;17.80;99.90;;;;;;4950461;28;20402;-86
2023/07/11 05:12:00;;;;;;;10.05;7.30;;;17.90;99.90;;;;;;4948990;28;20043;-86
2023/07/11 05:14:26;;;;;;;11.63;8.52;;;18.00;99.90;;;;;;4965010;28;20050;-86
2023/07/11 05:16:52;;;;;;;11.20;6.78;;;18.10;99.90;;;;;;4980713;28;20043;-86
2023/07/11 05:19:21;;;;;;;10.15;7.13;;;18.30;99.90;;;;;;4948689;28;20098;-86
2023/07/11 05:21:47;;;;;;;11.38;6.43;;;18.90;99.90;;;;;;4980939;28;20617;-87
2023/07/11 05:24:13;;;;;;;13.02;5.03;;;20.20;99.90;;;;;;4981130;28;20134;-85
2023/07/11 05:26:38;;;;;;;9.50;4.43;;;21.60;99.90;;;;;;4980751;28;20114;-86
2023/07/11 05:29:05;;;;;;;7.50;4.05;;;22.70;99.90;;;;;;4964592;28;20059;-86
2023/07/11 05:31:31;;;;;;;8.82;3.70;;;23.80;99.90;;;;;;4963530;28;20574;-85
2023/07/11 05:33:56;;;;;;;11.18;4.30;;;24.80;99.90;;;;;;4948436;29;20126;-86
2023/07/11 05:36:33;;;;;;;7.82;5.60;;;25.40;99.90;;;;;;4948643;28;20106;-85
2023/07/11 05:39:05;;;;;;;9.20;4.43;;;25.10;99.90;;;;;;4964864;28;20149;-86
2023/07/11 05:41:32;;;;;;;9.37;4.00;;;25.10;99.90;;;;;;4949560;28;20047;-86
2023/07/11 05:43:58;;;;;;;7.03;4.13;;;25.70;99.90;;;;;;4932119;29;20066;-86
2023/07/11 05:46:25;;;;;;;9.50;7.15;;;25.80;99.90;;;;;;4963735;28;20133;-86
2023/07/11 05:48:53;;;;;;;10.38;7.53;;;26.20;99.90;;;;;;4983760;28;20039;-86
2023/07/11 05:51:20;;;;;;;10.73;9.45;;;26.30;99.60;;;;;;4953204;28;20159;-86
2023/07/11 05:53:46;;;;;;;11.73;8.32;;;26.90;99.90;;;;;;4952982;28;20035;-86
2023/07/11 05:56:13;;;;;;;8.32;6.18;;;27.30;98.70;;;;;;4984156;28;20129;-86
2023/07/11 05:58:38;;;;;;;11.45;10.40;;;27.70;99.00;;;;;;4968091;28;20105;-85
2023/07/11 06:01:04;;;;;;;9.25;7.45;;;28.30;98.70;;;;;;4950796;28;20514;-86
2023/07/11 06:03:31;;;;;;;46.97;43.72;;;28.40;97.30;;;;;;4967804;28;20039;-86
2023/07/11 06:06:01;;;;;;;93.35;87.53;;;28.90;97.40;;;;;;4951572;29;20043;-86
2023/07/11 06:08:28;;;;;;;138.95;130.35;;;28.90;96.80;;;;;;4951654;29;20050;-86
2023/07/11 06:10:57;;;;;;;171.90;162.10;;;29.00;97.10;;;;;;4983789;28;20051;-86
2023/07/11 06:13:24;;;;;;;118.55;111.63;;;29.20;96.80;;;;;;4935450;29;20212;-86
2023/07/11 06:15:59;;;;;;;146.38;137.73;;;29.30;96.30;;;;;;4952128;28;20058;-86
2023/07/11 06:18:29;;;;;;;171.65;160.13;;;29.80;95.00;;;;;;4967593;28;20043;-86
2023/07/11 06:20:55;;;;;;;586.28;541.80;;;30.20;95.50;;;;;;4983882;28;20287;-87
2023/07/11 06:23:21;;;;;;;855.65;782.35;;;30.90;95.00;;;;;;4963397;28;20236;-86
2023/07/11 06:25:50;;;;;;;999.42;902.70;;;31.50;94.60;;;;;;4986334;28;20231;-86
2023/07/11 06:28:15;;;;;;;1070.47;953.72;;;31.90;94.10;;;;;;4954533;28;20043;-87
2023/07/11 06:30:43;;;;;;;1289.45;999.90;;;31.70;93.40;;;;;;4953577;28;20413;-86
2023/07/11 06:33:09;;;;;;;1221.75;998.55;;;30.80;93.80;;;;;;4954182;28;20077;-86
2023/07/11 06:35:37;;;;;;;1312.75;999.90;;;30.60;93.50;;;;;;4954341;28;20075;-86
2023/07/11 06:38:03;;;;;;;1086.93;965.75;;;30.00;93.40;;;;;;4986364;28;20572;-85
2023/07/11 06:40:28;;;;;;;964.67;869.58;;;29.20;94.30;;;;;;4954190;28;20030;-86
2023/07/11 06:42:57;;;;;;;856.50;778.65;;;28.60;95.00;;;;;;4938134;28;20035;-87
2023/07/11 06:45:22;;;;;;;870.17;791.47;;;28.80;95.50;;;;;;4937212;28;20043;-87
2023/07/11 06:47:48;;;;;;;837.35;763.60;;;29.00;94.90;;;;;;4986250;28;20082;-87
2023/07/11 06:50:19;;;;;;;891.50;809.45;;;29.20;94.70;;;;;;4971063;28;20066;-87
2023/07/11 06:52:45;;;;;;;822.67;751.45;;;28.80;94.50;;;;;;4969903;28;20034;-86
2023/07/11 06:55:12;;;;;;;622.00;573.53;;;28.60;95.10;;;;;;4937948;28;20051;-86
2023/07/11 06:57:38;;;;;;;642.55;591.67;;;28.40;95.70;;;;;;4937469;28;20042;-86
2023/07/11 07:00:06;;;;;;;513.75;475.02;;;28.20;95.90;;;;;;4936362;28;20401;-87
2023/07/11 07:02:32;;;;;;;477.27;442.05;;;27.90;95.60;;;;;;4953741;28;20050;-86
2023/07/11 07:04:58;;;;;;;509.70;471.95;;;28.20;95.70;;;;;;4953523;28;20548;-86
2023/07/11 07:07:24;;;;;;;548.20;505.52;;;28.70;95.70;;;;;;4971195;28;20038;-86
2023/07/11 07:09:52;;;;;;;561.75;518.17;;;28.80;95.70;;;;;;4953286;28;20470;-87
2023/07/11 07:12:18;;;;;;;682.25;625.42;;;29.30;95.50;;;;;;4969781;28;20066;-87
2023/07/11 07:14:44;;;;;;;824.95;751.20;;;29.90;95.70;;;;;;4969097;28;20093;-87
2023/07/11 07:17:09;;;;;;;967.08;875.75;;;29.80;94.30;;;;;;4937790;28;20351;-87
2023/07/11 07:19:35;;;;;;;1057.80;947.70;;;30.40;95.30;;;;;;4970880;28;20078;-87
2023/07/11 07:22:01;;;;;;;1082.93;963.95;;;31.10;94.70;;;;;;4953450;28;20043;-86
2023/07/11 07:24:26;;;;;;;1128.70;982.40;;;30.90;94.30;;;;;;4937729;28;20042;-86
2023/07/11 07:26:52;;;;;;;1300.85;999.90;;;30.80;94.20;;;;;;4985587;28;20054;-87
2023/07/11 07:29:18;;;;;;;1322.35;999.90;;;30.70;94.50;;;;;;4953428;28;20061;-87
2023/07/11 07:31:44;;;;;;;1201.43;995.03;;;30.90;94.50;;;;;;4953258;28;20526;-87
2023/07/11 07:34:09;;;;;;;1273.00;999.90;;;30.80;94.30;;;;;;4937134;28;20128;-88
2023/07/11 07:36:35;;;;;;;1261.47;999.90;;;30.80;94.10;;;;;;4937120;28;20038;-87
2023/07/11 07:39:01;;;;;;;1394.00;999.90;;;30.70;94.00;;;;;;4937092;28;20034;-87
2023/07/11 07:41:27;;;;;;;1253.47;999.90;;;30.20;93.80;;;;;;4936569;28;20070;-86
2023/07/11 07:43:52;;;;;;;1311.50;999.90;;;30.20;94.30;;;;;;4936765;28;20121;-87
2023/07/11 07:46:19;;;;;;;1235.13;999.90;;;29.90;94.40;;;;;;4953406;28;20138;-87
2023/07/11 07:48:45;;;;;;;1168.85;988.72;;;29.70;95.10;;;;;;4953101;28;20176;-87
2023/07/11 07:51:14;;;;;;;1085.82;961.58;;;29.80;95.30;;;;;;4970136;28;20182;-87
2023/07/11 07:53:40;;;;;;;1106.35;984.67;;;29.60;94.90;;;;;;4968911;28;20409;-87
2023/07/11 07:56:08;;;;;;;945.25;852.78;;;29.10;94.90;;;;;;4936302;28;20042;-87
2023/07/11 07:58:35;;;;;;;964.78;870.80;;;29.00;96.00;;;;;;4952763;28;20038;-87
2023/07/11 08:01:03;;;;;;;1032.80;928.03;;;29.00;95.60;;;;;;4952653;28;20097;-86
2023/07/11 08:03:28;;;;;;;1061.80;950.95;;;29.20;95.40;;;;;;4952869;28;20047;-87
2023/07/11 08:05:58;;;;;;;1088.78;969.13;;;29.70;95.40;;;;;;4952604;28;20109;-87
2023/07/11 08:08:27;;;;;;;1190.28;998.83;;;30.60;95.10;;;;;;4952749;28;20509;-87
2023/07/11 08:10:52;;;;;;;1234.80;997.92;;;30.60;94.60;;;;;;4935913;28;20050;-87
2023/07/11 08:13:18;;;;;;;1257.57;999.90;;;30.70;94.30;;;;;;4952419;28;20406;-87
2023/07/11 08:15:44;;;;;;;1267.45;999.90;;;30.90;94.10;;;;;;4952718;28;20242;-87
2023/07/11 08:18:10;;;;;;;1252.45;999.90;;;30.80;94.30;;;;;;4936831;28;20039;-87
2023/07/11 08:20:37;;;;;;;1290.22;999.90;;;30.40;94.00;;;;;;4936374;28;20097;-87
2023/07/11 08:23:03;;;;;;;1364.93;999.90;;;30.10;94.10;;;;;;4969700;28;20050;-87
2023/07/11 08:25:29;;;;;;;1311.80;999.90;;;29.80;94.70;;;;;;4984408;28;20050;-86
2023/07/11 08:27:55;;;;;;;1283.00;999.90;;;29.90;95.10;;;;;;4937090;28;20381;-86
2023/07/11 08:30:20;;;;;;;1275.20;999.90;;;30.00;95.30;;;;;;4969510;28;20031;-87
2023/07/11 08:32:47;;;;;;;1410.82;999.90;;;30.20;95.20;;;;;;4952553;28;20038;-87
2023/07/11 08:35:13;;;;;;;1195.07;995.53;;;30.50;94.80;;;;;;4984645;28;20055;-87
2023/07/11 08:37:38;;;;;;;1604.00;999.90;;;31.00;94.30;;;;;;4969488;28;20042;-87
2023/07/11 08:40:05;;;;;;;1357.95;999.90;;;31.60;94.70;;;;;;4951706;28;20401;-87
2023/07/11 08:42:40;;;;;;;1246.75;999.90;;;32.10;94.10;;;;;;4936118;28;20045;-87
2023/07/11 08:45:26;;;;;;;1308.57;999.90;;;32.50;93.60;;;;;;4935882;28;20047;-87
2023/07/11 08:48:15;;;;;;;1434.88;999.90;;;32.50;93.40;;;;;;4952188;28;20039;-87
2023/07/11 08:51:01;;;;;;;1389.85;999.90;;;32.30;92.60;;;;;;4952368;28;20061;-87
2023/07/11 08:53:33;;;;;;;1517.68;999.90;;;31.80;93.10;;;;;;4968165;28;20039;-87
2023/07/11 08:56:24;;;;;;;1373.07;999.90;;;31.50;93.60;;;;;;4951919;28;20047;-87
2023/07/11 08:58:53;;;;;;;1323.57;999.90;;;31.40;93.70;;;;;;4941575;28;20113;-87
2023/07/11 09:01:57;;;;;;;1422.70;999.90;;;31.60;93.40;;;;;;4969217;28;20048;-87
2023/07/11 09:04:24;;;;;;;1446.68;999.90;;;31.50;92.60;;;;;;4951650;28;20569;-86
2023/07/11 09:07:09;;;;;;;1423.30;999.90;;;31.40;93.50;;;;;;4936444;28;20043;-87
2023/07/11 09:09:35;;;;;;;1510.55;999.90;;;31.40;93.80;;;;;;4935602;28;20307;-87
2023/07/11 09:12:21;;;;;;;1543.38;999.90;;;31.60;93.50;;;;;;4984182;28;20651;-87
2023/07/11 09:15:28;;;;;;;1513.22;999.90;;;31.30;92.80;;;;;;4984053;28;20398;-87
2023/07/11 09:18:32;;;;;;;1544.30;999.90;;;31.30;92.60;;;;;;4904445;28;20457;-87
2023/07/11 09:21:10;;;;;;;1660.57;999.90;;;31.60;92.90;;;;;;4967702;28;20054;-88
2023/07/11 09:23:43;;;;;;;1590.05;999.90;;;31.70;92.00;;;;;;4954173;28;20410;-87
2023/07/11 09:26:24;;;;;;;1685.57;999.90;;;31.70;91.90;;;;;;4939585;28;20069;-87
2023/07/11 09:28:57;;;;;;;1769.30;999.90;;;31.80;92.10;;;;;;4939553;28;20613;-87
2023/07/11 09:31:23;;;;;;;1715.32;999.90;;;31.70;92.10;;;;;;4955238;28;20457;-87
2023/07/11 09:33:56;;;;;;;1733.22;999.90;;;31.80;92.20;;;;;;4939418;28;20177;-87
2023/07/11 09:36:31;;;;;;;1753.32;999.90;;;31.50;92.40;;;;;;4939570;28;20383;-87
2023/07/11 09:39:04;;;;;;;1556.15;999.90;;;31.60;92.40;;;;;;4954893;28;20054;-87
2023/07/11 09:41:47;;;;;;;1524.20;999.90;;;31.60;92.20;;;;;;4939420;28;20050;-88
2023/07/11 09:44:13;;;;;;;1512.97;999.90;;;31.60;92.50;;;;;;4939334;28;20216;-87
2023/07/11 09:46:39;;;;;;;1571.68;999.90;;;31.60;92.00;;;;;;4987077;28;20045;-87
2023/07/11 09:49:09;;;;;;;1629.28;999.90;;;31.70;92.40;;;;;;4972364;28;20039;-88
2023/07/11 09:51:42;;;;;;;1366.57;999.90;;;31.60;91.10;;;;;;4972014;28;20038;-88
2023/07/11 09:54:23;;;;;;;1550.68;999.90;;;31.40;91.50;;;;;;4987386;28;20074;-88
2023/07/11 09:56:52;;;;;;;1520.47;999.90;;;31.50;91.70;;;;;;4938969;28;20057;-88
2023/07/11 09:59:20;;;;;;;1560.60;999.90;;;31.40;91.90;;;;;;4954721;28;20035;-87
2023/07/11 10:02:00;;;;;;;1520.80;999.90;;;31.30;91.90;;;;;;4954787;28;20043;-88
2023/07/11 10:04:26;;;;;;;1460.93;999.90;;;31.20;91.50;;;;;;4954680;28;20524;-87
2023/07/11 10:07:05;;;;;;;1390.10;999.90;;;31.30;91.70;;;;;;4938256;28;20039;-88
2023/07/11 10:09:42;;;;;;;1449.85;999.90;;;31.50;91.70;;;;;;4972098;28;20042;-88
2023/07/11 10:12:23;;;;;;;1332.00;999.90;;;31.60;92.20;;;;;;4938621;28;20042;-88
2023/07/11 10:14:56;;;;;;;1535.80;999.90;;;31.90;91.80;;;;;;4987031;28;20498;-88
2023/07/11 10:17:33;;;;;;;1445.45;999.90;;;32.20;91.70;;;;;;4954444;28;20043;-88
2023/07/11 10:20:02;;;;;;;1640.65;999.90;;;32.30;91.40;;;;;;4954868;28;20082;-88
2023/07/11 10:22:30;;;;;;;1525.63;999.90;;;32.50;91.60;;;;;;4938287;28;20069;-88
2023/07/11 10:25:13;;;;;;;1583.68;999.90;;;32.70;91.50;;;;;;4938381;28;20046;-88
2023/07/11 10:27:57;;;;;;;1711.88;999.90;;;32.70;90.80;;;;;;4970850;28;20050;-88
2023/07/11 10:30:28;;;;;;;1540.10;999.90;;;32.80;91.10;;;;;;4954735;28;20122;-88
2023/07/11 10:33:13;;;;;;;1592.68;999.90;;;32.40;90.10;;;;;;4986342;28;20038;-88
2023/07/11 10:35:40;;;;;;;1825.32;999.90;;;32.20;91.00;;;;;;4954307;28;20045;-88
2023/07/11 10:38:16;;;;;;;1493.50;999.90;;;31.90;91.40;;;;;;4938305;28;20049;-88
2023/07/11 10:40:47;;;;;;;1622.10;999.90;;;31.50;91.30;;;;;;4970811;28;20039;-87
2023/07/11 10:43:28;;;;;;;1696.57;999.90;;;31.60;91.90;;;;;;4954427;28;20129;-88
2023/07/11 10:46:04;;;;;;;1840.47;999.90;;;31.80;91.30;;;;;;4953826;28;20129;-87
2023/07/11 10:48:33;;;;;;;1432.60;999.90;;;32.00;91.40;;;;;;4971513;28;20121;-87
2023/07/11 10:51:15;;;;;;;1671.85;999.90;;;31.80;91.10;;;;;;4937669;28;20038;-87
2023/07/11 10:53:43;;;;;;;1623.40;999.90;;;32.10;92.20;;;;;;4954287;28;20039;-87
2023/07/11 10:56:21;;;;;;;1866.50;999.90;;;31.90;91.80;;;;;;4937906;28;20042;-88
2023/07/11 10:58:48;;;;;;;1577.30;999.90;;;32.10;92.20;;;;;;4986008;28;20082;-88
2023/07/11 11:01:55;;;;;;;1793.07;999.90;;;32.20;91.40;;;;;;4954115;28;20477;-88
2023/07/11 11:05:00;;;;;;;1548.30;999.90;;;32.30;91.70;;;;;;4910243;29;20047;-87
2023/07/11 11:07:37;;;;;;;1592.10;999.90;;;32.40;91.90;;;;;;4895477;29;20140;-88
2023/07/11 11:10:41;;;;;;;1869.55;999.90;;;32.60;91.70;;;;;;4895221;29;20231;-88
2023/07/11 11:13:35;;;;;;;1675.05;999.90;;;32.60;92.10;;;;;;4895511;29;20064;-88
2023/07/11 11:16:06;;;;;;;1773.82;999.90;;;32.60;92.10;;;;;;4895633;29;20048;-86
2023/07/11 11:19:03;;;;;;;1964.80;999.90;;;32.40;91.30;;;;;;4894111;29;20059;-87
2023/07/11 11:21:57;;;;;;;1557.40;999.90;;;32.10;90.80;;;;;;4911011;29;20126;-88
2023/07/11 11:24:42;;;;;;;1581.38;999.90;;;32.20;91.60;;;;;;4894607;29;20079;-88
2023/07/11 11:27:26;;;;;;;1499.80;999.90;;;32.30;90.80;;;;;;4895245;29;20052;-87
2023/07/11 11:30:09;;;;;;;1525.55;999.90;;;32.50;90.70;;;;;;4895027;29;20530;-88
2023/07/11 11:33:09;;;;;;;1773.97;999.90;;;32.70;90.60;;;;;;4910413;29;20059;-88
2023/07/11 11:36:02;;;;;;;1853.93;999.90;;;32.80;91.20;;;;;;4894897;29;20091;-88
2023/07/11 11:38:50;;;;;;;1550.38;999.90;;;32.60;91.10;;;;;;4920016;28;20050;-88
2023/07/11 11:41:29;;;;;;;1681.72;999.90;;;32.50;90.50;;;;;;4953450;28;20046;-88
2023/07/11 11:43:58;;;;;;;1590.43;999.90;;;32.60;90.20;;;;;;4937306;28;20047;-87
2023/07/11 11:46:24;;;;;;;1642.10;999.90;;;32.60;90.60;;;;;;4938329;28;20145;-87
2023/07/11 11:48:57;;;;;;;1521.45;999.90;;;32.70;90.50;;;;;;4970999;28;20054;-88
2023/07/11 11:51:27;;;;;;;1770.80;999.90;;;32.40;90.50;;;;;;4954196;28;20437;-88
2023/07/11 11:54:21;;;;;;;1495.07;999.90;;;32.50;90.70;;;;;;4938525;28;20042;-86
2023/07/11 11:56:52;;;;;;;1559.68;999.90;;;32.50;89.80;;;;;;4937346;28;20031;-88
2023/07/11 11:59:25;;;;;;;1576.25;999.90;;;32.50;90.30;;;;;;4953154;28;20039;-88
2023/07/11 12:01:54;;;;;;;1717.97;999.90;;;32.60;90.50;;;;;;4953009;28;20113;-88
2023/07/11 12:04:29;;;;;;;1661.22;999.90;;;32.80;90.30;;;;;;4951824;28;20489;-88
2023/07/11 12:07:08;;;;;;;1789.22;999.90;;;32.80;89.20;;;;;;4936759;28;20054;-88
2023/07/11 12:09:47;;;;;;;1818.13;999.90;;;32.90;90.00;;;;;;4936817;28;20050;-88
2023/07/11 12:12:14;;;;;;;1781.82;999.90;;;32.80;89.00;;;;;;4968818;28;20085;-86
2023/07/11 12:14:52;;;;;;;1810.90;999.90;;;32.70;89.50;;;;;;4952656;28;20054;-86
2023/07/11 12:17:33;;;;;;;1739.03;999.90;;;32.70;89.70;;;;;;4952397;28;20070;-86
2023/07/11 12:20:02;;;;;;;1745.82;999.90;;;32.70;89.50;;;;;;4952533;28;20134;-86
2023/07/11 12:22:36;;;;;;;1649.30;999.90;;;32.70;89.90;;;;;;4936013;28;20067;-85
2023/07/11 12:25:20;;;;;;;1614.75;999.90;;;32.70;90.10;;;;;;4936343;28;20184;-87
2023/07/11 12:28:21;;;;;;;1731.10;999.90;;;32.60;89.80;;;;;;4952413;28;20691;-87
2023/07/11 12:30:46;;;;;;;1777.25;999.90;;;32.70;90.50;;;;;;4952748;28;20039;-87
2023/07/11 12:33:23;;;;;;;1699.95;999.90;;;32.80;90.40;;;;;;4935516;28;20090;-86
2023/07/11 12:36:30;;;;;;;1854.43;999.90;;;32.70;89.90;;;;;;4952545;28;20054;-86